createdAt,value
2023-10-11T00:00:53.122Z,11.96
2023-10-11T00:05:57.372Z,11.95
2023-10-11T00:11:02.166Z,12.43
2023-10-11T00:16:09.461Z,11.92
2023-10-11T00:21:16.647Z,11.83
2023-10-11T00:26:21.324Z,12.06
2023-10-11T00:31:26.011Z,11.91
2023-10-11T00:36:31.443Z,12.03
2023-10-11T00:41:40.828Z,11.60
2023-10-11T00:46:57.981Z,11.60
2023-10-11T00:52:05.354Z,11.64
2023-10-11T00:57:08.945Z,11.99
2023-10-11T01:02:15.745Z,11.86
2023-10-11T01:07:19.170Z,11.90
2023-10-11T01:12:23.408Z,11.50
2023-10-11T01:17:31.454Z,11.34
2023-10-11T01:22:36.214Z,11.51
2023-10-11T01:27:39.414Z,10.69
2023-10-11T01:32:43.650Z,11.20
2023-10-11T01:37:49.601Z,10.99
2023-10-11T01:42:53.108Z,11.34
2023-10-11T01:47:58.408Z,11.11
2023-10-11T01:53:04.909Z,11.35
2023-10-11T01:58:13.910Z,11.32
2023-10-11T02:03:17.273Z,11.16
2023-10-11T02:08:22.090Z,10.91
2023-10-11T02:13:25.362Z,11.05
2023-10-11T02:18:29.684Z,10.94
2023-10-11T02:23:38.813Z,10.77
2023-10-11T02:28:42.130Z,11.00
2023-10-11T02:33:45.453Z,10.67
2023-10-11T02:38:52.377Z,10.96
2023-10-11T02:43:58.912Z,10.79
2023-10-11T02:49:07.380Z,10.52
2023-10-11T02:54:15.781Z,10.25
2023-10-11T02:59:20.814Z,10.11
2023-10-11T03:04:26.706Z,10.06
2023-10-11T03:09:34.422Z,10.26
2023-10-11T03:14:42.971Z,10.11
2023-10-11T03:19:46.511Z,10.61
2023-10-11T03:25:01.072Z,10.27
2023-10-11T03:30:05.043Z,10.32
2023-10-11T03:35:09.765Z,10.62
2023-10-11T03:40:28.480Z,10.55
2023-10-11T03:45:36.085Z,10.27
2023-10-11T03:50:48.933Z,10.87
2023-10-11T03:55:54.641Z,10.71
2023-10-11T04:01:08.040Z,10.68
2023-10-11T04:06:20.627Z,10.56
2023-10-11T04:11:39.156Z,10.72
2023-10-11T04:16:46.038Z,10.45
2023-10-11T04:21:56.801Z,10.50
2023-10-11T04:27:21.871Z,10.49
2023-10-11T04:32:42.337Z,10.88
2023-10-11T04:37:51.458Z,10.57
2023-10-11T04:43:06.714Z,10.59
2023-10-11T04:48:10.268Z,9.78
2023-10-11T04:53:18.865Z,9.76
2023-10-11T05:04:00.796Z,10.32
2023-10-11T05:09:14.959Z,10.33
2023-10-11T05:14:31.513Z,10.27
2023-10-11T05:19:37.327Z,10.26
2023-10-11T05:25:06.258Z,9.93
2023-10-11T05:30:17.745Z,9.81
2023-10-11T05:35:47.356Z,10.10
2023-10-11T05:41:08.554Z,10.20
2023-10-11T05:46:29.309Z,10.28
2023-10-11T05:51:34.072Z,10.54
2023-10-11T05:56:40.107Z,10.64
2023-10-11T06:01:45.515Z,9.96
2023-10-11T06:06:53.705Z,10.58
2023-10-11T06:12:01.576Z,10.14
2023-10-11T06:17:06.939Z,10.34
2023-10-11T06:22:12.124Z,9.77
2023-10-11T06:27:42.914Z,10.76
2023-10-11T06:32:46.303Z,10.63
2023-10-11T06:37:53.865Z,10.56
2023-10-11T06:42:58.584Z,10.49
2023-10-11T06:48:08.229Z,10.75
2023-10-11T06:53:14.938Z,11.21
2023-10-11T06:58:20.548Z,11.82
2023-10-11T07:03:28.573Z,11.81
2023-10-11T07:08:37.207Z,12.34
2023-10-11T07:13:56.400Z,12.11
2023-10-11T07:19:00.122Z,12.25
2023-10-11T07:24:20.795Z,12.63
2023-10-11T07:29:25.186Z,12.97
2023-10-11T07:34:28.686Z,13.38
2023-10-11T07:39:35.528Z,13.82
2023-10-11T07:44:40.552Z,13.90
2023-10-11T07:49:43.952Z,14.56
2023-10-11T07:54:48.769Z,15.00
2023-10-11T07:59:53.706Z,15.27
2023-10-11T08:04:58.434Z,15.33
2023-10-11T08:10:23.229Z,15.59
2023-10-11T08:15:26.701Z,15.88
2023-10-11T08:20:32.068Z,15.95
2023-10-11T08:25:40.914Z,16.45
2023-10-11T08:30:47.170Z,16.61
2023-10-11T08:35:54.504Z,16.87
2023-10-11T08:41:00.423Z,16.95
2023-10-11T08:46:10.182Z,17.53
2023-10-11T08:51:14.607Z,17.48
2023-10-11T08:56:19.334Z,18.00
2023-10-11T09:01:26.071Z,18.08
2023-10-11T09:06:32.169Z,18.32
2023-10-11T09:11:36.944Z,18.42
2023-10-11T09:16:40.329Z,18.26
2023-10-11T09:21:43.988Z,18.64
2023-10-11T09:27:10.312Z,18.64
2023-10-11T09:32:14.947Z,18.68
2023-10-11T09:37:21.982Z,18.90
2023-10-11T09:42:31.212Z,19.43
2023-10-11T09:47:35.807Z,19.54
2023-10-11T09:52:39.158Z,19.69
2023-10-11T09:57:57.856Z,19.83
2023-10-11T10:03:01.358Z,20.31
2023-10-11T10:08:16.148Z,20.54
2023-10-11T10:13:26.006Z,20.58
2023-10-11T10:18:29.695Z,20.80
2023-10-11T10:23:39.629Z,20.83
2023-10-11T10:28:58.904Z,21.01
2023-10-11T10:34:31.260Z,20.89
2023-10-11T10:39:50.360Z,21.51
2023-10-11T10:44:57.077Z,21.35
2023-10-11T10:50:07.430Z,21.67
2023-10-11T10:55:11.822Z,21.93
2023-10-11T11:00:26.178Z,21.63
2023-10-11T11:05:32.748Z,22.04
2023-10-11T11:10:36.472Z,22.07
2023-10-11T11:15:45.602Z,22.44
2023-10-11T11:20:52.657Z,22.54
2023-10-11T11:25:58.026Z,22.60
2023-10-11T11:31:15.936Z,22.55
2023-10-11T11:36:34.276Z,22.80
2023-10-11T11:41:37.828Z,23.21
2023-10-11T11:46:42.452Z,23.15
2023-10-11T11:51:46.021Z,23.16
2023-10-11T11:56:49.864Z,23.52
2023-10-11T12:01:57.642Z,23.39
2023-10-11T12:07:01.257Z,23.57
2023-10-11T12:12:06.446Z,23.45
2023-10-11T12:17:11.483Z,23.66
2023-10-11T12:22:15.955Z,23.60
2023-10-11T12:27:19.325Z,23.80
2023-10-11T12:32:23.983Z,24.06
2023-10-11T12:37:28.453Z,23.85
2023-10-11T12:42:35.203Z,24.15
2023-10-11T12:47:40.000Z,24.21
2023-10-11T12:52:45.623Z,24.53
2023-10-11T12:57:49.700Z,24.50
2023-10-11T13:03:00.098Z,24.59
2023-10-11T13:08:04.214Z,24.66
2023-10-11T13:13:10.442Z,24.62
2023-10-11T13:18:21.149Z,24.99
2023-10-11T13:23:30.646Z,24.92
2023-10-11T13:28:34.722Z,25.08
2023-10-11T13:33:39.739Z,24.88
2023-10-11T13:38:46.789Z,24.84
2023-10-11T13:43:50.347Z,24.94
2023-10-11T13:49:06.691Z,24.87
2023-10-11T13:54:30.217Z,24.87
2023-10-11T13:59:38.450Z,24.98
2023-10-11T14:04:57.573Z,24.99
2023-10-11T14:10:01.325Z,25.01
2023-10-11T14:15:08.296Z,24.95
2023-10-11T14:20:21.132Z,24.94
2023-10-11T14:25:25.787Z,24.96
2023-10-11T14:30:29.476Z,25.08
2023-10-11T14:35:38.967Z,25.03
2023-10-11T14:40:44.340Z,25.19
2023-10-11T14:45:49.590Z,25.15
2023-10-11T14:50:55.697Z,25.13
2023-10-11T14:55:58.962Z,25.13
2023-10-11T15:01:08.503Z,25.20
2023-10-11T15:06:14.057Z,25.25
2023-10-11T15:11:22.112Z,25.00
2023-10-11T15:16:28.033Z,25.06
2023-10-11T15:21:32.816Z,24.92
2023-10-11T15:26:36.211Z,24.98
2023-10-11T15:31:39.652Z,24.61
2023-10-11T15:36:44.426Z,24.37
2023-10-11T15:41:48.127Z,24.27
2023-10-11T15:46:51.833Z,24.21
2023-10-11T15:51:56.622Z,24.09
2023-10-11T15:57:01.704Z,23.93
2023-10-11T16:02:07.886Z,23.75
2023-10-11T16:07:12.756Z,23.53
2023-10-11T16:12:15.984Z,23.52
2023-10-11T16:17:19.368Z,23.26
2023-10-11T16:22:24.025Z,23.32
2023-10-11T16:27:27.363Z,22.98
2023-10-11T16:32:32.086Z,22.56
2023-10-11T16:37:37.802Z,22.41
2023-10-11T16:42:41.411Z,22.27
2023-10-11T16:47:45.825Z,22.14
2023-10-11T16:52:51.975Z,21.60
2023-10-11T16:57:56.631Z,21.50
2023-10-11T17:03:00.590Z,21.15
2023-10-11T17:08:09.254Z,20.54
2023-10-11T17:13:15.312Z,20.41
2023-10-11T17:18:18.706Z,20.32
2023-10-11T17:23:25.053Z,20.00
2023-10-11T17:28:28.414Z,19.59
2023-10-11T17:33:32.468Z,19.16
2023-10-11T17:38:37.761Z,19.33
2023-10-11T17:43:43.154Z,19.04
2023-10-11T17:48:46.807Z,18.46
2023-10-11T17:53:52.691Z,18.05
2023-10-11T17:59:02.653Z,17.81
2023-10-11T18:04:06.899Z,17.66
2023-10-11T18:09:13.578Z,17.45
2023-10-11T18:14:17.203Z,17.62
2023-10-11T18:19:21.559Z,17.70
2023-10-11T18:24:26.524Z,17.29
2023-10-11T18:29:29.716Z,17.04
2023-10-11T18:34:33.182Z,16.56
2023-10-11T18:39:38.022Z,16.48
2023-10-11T18:44:41.337Z,16.29
2023-10-11T18:49:44.789Z,16.38
2023-10-11T18:54:49.582Z,16.41
2023-10-11T18:59:53.614Z,16.14
2023-10-11T19:04:57.416Z,15.67
2023-10-11T19:10:05.943Z,15.31
2023-10-11T19:15:10.486Z,15.36
2023-10-11T19:20:15.271Z,15.43
2023-10-11T19:25:21.958Z,15.11
2023-10-11T19:30:25.551Z,15.13
2023-10-11T19:35:29.516Z,14.84
2023-10-11T19:40:34.257Z,14.62
2023-10-11T19:45:40.448Z,14.63
2023-10-11T19:50:43.789Z,14.50
2023-10-11T19:55:49.130Z,14.97
2023-10-11T20:00:52.545Z,14.32
2023-10-11T20:05:56.066Z,14.40
2023-10-11T20:11:05.073Z,14.38
2023-10-11T20:16:13.602Z,14.03
2023-10-11T20:21:20.082Z,14.02
2023-10-11T20:26:25.900Z,14.25
2023-10-11T20:31:30.089Z,13.96
2023-10-11T20:36:34.140Z,14.38
2023-10-11T20:41:38.934Z,14.25
2023-10-11T20:46:42.359Z,14.13
2023-10-11T20:51:45.794Z,13.88
2023-10-11T20:56:50.953Z,13.83
2023-10-11T21:01:56.106Z,13.78
2023-10-11T21:06:59.423Z,13.82
2023-10-11T21:12:04.391Z,14.01
2023-10-11T21:17:10.073Z,13.77
2023-10-11T21:22:13.497Z,13.75
2023-10-11T21:27:19.018Z,13.53
2023-10-11T21:32:22.353Z,13.74
2023-10-11T21:37:25.710Z,13.59
2023-10-11T21:42:32.217Z,13.66
2023-10-11T21:47:35.700Z,13.68
2023-10-11T21:52:39.100Z,13.52
2023-10-11T21:57:44.718Z,13.15
2023-10-11T22:02:48.653Z,13.26
2023-10-11T22:07:52.016Z,12.76
2023-10-11T22:12:57.222Z,12.91
2023-10-11T22:18:02.393Z,12.56
2023-10-11T22:23:06.788Z,13.05
2023-10-11T22:28:11.776Z,12.85
2023-10-11T22:33:15.162Z,12.47
2023-10-11T22:38:20.798Z,12.55
2023-10-11T22:43:29.728Z,12.45
2023-10-11T22:48:35.410Z,12.43
2023-10-11T22:53:49.933Z,12.12
2023-10-11T22:59:05.794Z,12.36
2023-10-11T23:04:10.176Z,12.51
2023-10-11T23:09:20.154Z,12.86
2023-10-11T23:14:25.452Z,12.64
2023-10-11T23:19:31.895Z,12.43
2023-10-11T23:24:42.016Z,12.42
2023-10-11T23:29:47.124Z,12.41
2023-10-11T23:34:52.220Z,12.49
2023-10-11T23:40:09.568Z,12.18
2023-10-11T23:45:17.850Z,12.40
2023-10-11T23:50:22.644Z,12.48
2023-10-11T23:55:27.936Z,12.22
